createdAt,value
2023-04-04T00:00:47.947Z,2.25
2023-04-04T00:03:15.061Z,2.20
2023-04-04T00:05:42.582Z,2.40
2023-04-04T00:08:09.694Z,2.28
2023-04-04T00:10:36.746Z,2.00
2023-04-04T00:13:05.709Z,2.30
2023-04-04T00:15:34.764Z,2.35
2023-04-04T00:18:02.988Z,1.70
2023-04-04T00:20:31.237Z,1.98
2023-04-04T00:22:59.209Z,2.38
2023-04-04T00:25:26.314Z,1.80
2023-04-04T00:27:53.450Z,2.00
2023-04-04T00:30:20.547Z,2.42
2023-04-04T00:32:47.979Z,2.15
2023-04-04T00:35:15.150Z,2.25
2023-04-04T00:37:42.908Z,2.00
2023-04-04T00:40:10.213Z,2.25
2023-04-04T00:42:37.790Z,1.92
2023-04-04T00:45:07.771Z,1.98
2023-04-04T00:47:35.385Z,2.47
2023-04-04T00:50:02.440Z,2.78
2023-04-04T00:52:29.592Z,1.90
2023-04-04T00:54:57.299Z,2.45
2023-04-04T00:57:24.714Z,2.30
2023-04-04T00:59:52.230Z,2.00
2023-04-04T01:02:19.944Z,2.20
2023-04-04T01:04:47.442Z,2.05
2023-04-04T01:07:14.642Z,2.15
2023-04-04T01:09:42.217Z,2.40
2023-04-04T01:12:09.438Z,2.45
2023-04-04T01:14:36.715Z,2.42
2023-04-04T01:17:04.386Z,2.38
2023-04-04T01:19:36.413Z,2.40
2023-04-04T01:22:04.683Z,2.40
2023-04-04T01:24:34.345Z,2.53
2023-04-04T01:27:02.047Z,2.45
2023-04-04T01:29:29.226Z,2.90
2023-04-04T01:32:13.018Z,3.15
2023-04-04T01:35:02.320Z,3.20
2023-04-04T01:37:48.163Z,3.15
2023-04-04T01:40:21.750Z,2.83
2023-04-04T01:42:49.834Z,2.47
2023-04-04T01:45:17.038Z,2.35
2023-04-04T01:47:44.551Z,2.05
2023-04-04T01:50:12.080Z,2.38
2023-04-04T01:52:39.220Z,2.53
2023-04-04T01:55:06.715Z,2.40
2023-04-04T01:57:33.826Z,2.25
2023-04-04T02:00:01.331Z,2.67
2023-04-04T02:02:28.531Z,2.60
2023-04-04T02:04:55.761Z,2.72
2023-04-04T02:07:23.409Z,3.03
2023-04-04T02:09:50.507Z,3.08
2023-04-04T02:12:17.892Z,3.25
2023-04-04T02:14:45.404Z,2.95
2023-04-04T02:17:12.520Z,2.70
2023-04-04T02:19:39.583Z,3.20
2023-04-04T02:22:06.869Z,2.95
2023-04-04T02:24:34.023Z,2.40
2023-04-04T02:27:01.278Z,3.00
2023-04-04T02:29:28.495Z,2.78
2023-04-04T02:31:56.051Z,3.10
2023-04-04T02:34:23.041Z,3.35
2023-04-04T02:36:50.810Z,3.40
2023-04-04T02:39:17.936Z,3.33
2023-04-04T02:41:45.019Z,3.47
2023-04-04T02:44:12.439Z,3.80
2023-04-04T02:46:39.607Z,3.33
2023-04-04T02:49:06.709Z,3.42
2023-04-04T02:51:33.750Z,2.75
2023-04-04T02:54:03.137Z,3.65
2023-04-04T02:56:30.152Z,3.65
2023-04-04T02:58:57.224Z,3.35
2023-04-04T03:01:24.361Z,3.10
2023-04-04T03:03:51.589Z,2.80
2023-04-04T03:06:18.790Z,3.72
2023-04-04T03:08:45.962Z,3.78
2023-04-04T03:11:13.622Z,4.32
2023-04-04T03:13:40.932Z,4.63
2023-04-04T03:16:08.258Z,4.47
2023-04-04T03:18:35.483Z,4.32
2023-04-04T03:21:02.609Z,4.60
2023-04-04T03:23:29.733Z,4.85
2023-04-04T03:25:56.895Z,5.10
2023-04-04T03:28:24.062Z,5.25
2023-04-04T03:30:51.507Z,5.35
2023-04-04T03:33:19.580Z,5.82
2023-04-04T03:35:46.654Z,6.30
2023-04-04T03:38:14.161Z,6.55
2023-04-04T03:40:42.289Z,6.60
2023-04-04T03:43:09.684Z,7.88
2023-04-04T03:45:40.168Z,7.90
2023-04-04T03:48:07.499Z,8.52
2023-04-04T03:50:36.976Z,8.15
2023-04-04T03:53:04.025Z,6.93
2023-04-04T03:55:31.251Z,7.00
2023-04-04T03:57:59.086Z,6.85
2023-04-04T04:00:26.392Z,8.52
2023-04-04T04:02:53.753Z,10.70
2023-04-04T04:05:20.930Z,11.15
2023-04-04T04:07:47.972Z,10.50
2023-04-04T04:10:15.127Z,11.43
2023-04-04T04:12:42.328Z,11.93
2023-04-04T04:15:09.732Z,11.32
2023-04-04T04:17:42.913Z,10.77
2023-04-04T04:20:10.741Z,11.52
2023-04-04T04:22:38.280Z,11.88
2023-04-04T04:25:05.887Z,10.68
2023-04-04T04:27:32.984Z,8.85
2023-04-04T04:30:00.070Z,8.25
2023-04-04T04:32:27.503Z,8.05
2023-04-04T04:34:54.516Z,6.50
2023-04-04T04:37:21.795Z,7.03
2023-04-04T04:39:48.862Z,6.15
2023-04-04T04:42:15.984Z,6.68
2023-04-04T04:44:43.159Z,5.93
2023-04-04T04:47:10.282Z,4.75
2023-04-04T04:49:37.341Z,4.93
2023-04-04T04:52:05.081Z,6.75
2023-04-04T04:54:32.095Z,7.05
2023-04-04T04:57:00.760Z,6.53
2023-04-04T04:59:27.994Z,6.85
2023-04-04T05:01:55.100Z,7.57
2023-04-04T05:04:22.346Z,5.65
2023-04-04T05:06:49.487Z,5.93
2023-04-04T05:09:16.603Z,5.70
2023-04-04T05:11:43.882Z,6.15
2023-04-04T05:14:11.023Z,6.65
2023-04-04T05:16:38.519Z,7.05
2023-04-04T05:19:05.702Z,6.72
2023-04-04T05:21:32.804Z,7.03
2023-04-04T05:24:00.155Z,7.22
2023-04-04T05:26:27.340Z,8.48
2023-04-04T05:28:54.787Z,7.32
2023-04-04T05:31:21.884Z,6.45
2023-04-04T05:33:49.097Z,6.03
2023-04-04T05:36:16.351Z,7.90
2023-04-04T05:38:43.581Z,6.53
2023-04-04T05:41:10.922Z,6.28
2023-04-04T05:43:37.916Z,6.38
2023-04-04T05:46:05.294Z,8.40
2023-04-04T05:48:32.501Z,7.03
2023-04-04T05:50:59.568Z,7.90
2023-04-04T05:53:26.648Z,7.20
2023-04-04T05:55:54.005Z,7.45
2023-04-04T05:58:21.231Z,6.43
2023-04-04T06:00:48.346Z,6.20
2023-04-04T06:03:16.806Z,5.85
2023-04-04T06:05:45.173Z,6.85
2023-04-04T06:08:12.283Z,7.43
2023-04-04T06:10:39.688Z,7.70
2023-04-04T06:13:06.968Z,8.20
2023-04-04T06:15:34.111Z,8.05
2023-04-04T06:18:01.219Z,8.48
2023-04-04T06:20:28.292Z,7.60
2023-04-04T06:22:55.552Z,8.13
2023-04-04T06:25:22.749Z,8.18
2023-04-04T06:27:49.855Z,8.23
2023-04-04T06:30:18.365Z,8.68
2023-04-04T06:32:45.528Z,7.65
2023-04-04T06:35:12.615Z,8.10
2023-04-04T06:37:39.641Z,8.10
2023-04-04T06:40:07.697Z,8.05
2023-04-04T06:42:34.839Z,7.88
2023-04-04T06:45:01.919Z,6.97
2023-04-04T06:47:29.227Z,6.78
2023-04-04T06:49:56.678Z,7.00
2023-04-04T06:52:24.999Z,6.68
2023-04-04T06:54:52.765Z,6.60
2023-04-04T06:57:19.830Z,5.28
2023-04-04T06:59:46.949Z,4.60
2023-04-04T07:02:13.981Z,4.07
2023-04-04T07:04:42.105Z,3.92
2023-04-04T07:07:09.254Z,4.55
2023-04-04T07:09:36.509Z,4.30
2023-04-04T07:12:04.047Z,4.80
2023-04-04T07:14:31.349Z,3.78
2023-04-04T07:16:59.254Z,4.03
2023-04-04T07:19:29.203Z,4.45
2023-04-04T07:21:57.015Z,4.60
2023-04-04T07:24:24.699Z,4.70
2023-04-04T07:26:52.170Z,4.03
2023-04-04T07:29:19.440Z,4.88
2023-04-04T07:31:46.831Z,4.20
2023-04-04T07:34:14.173Z,4.22
2023-04-04T07:36:41.386Z,3.78
2023-04-04T07:39:08.471Z,4.43
2023-04-04T07:41:36.069Z,3.88
2023-04-04T07:44:03.261Z,4.07
2023-04-04T07:46:30.458Z,4.25
2023-04-04T07:48:57.869Z,4.00
2023-04-04T07:51:29.521Z,3.70
2023-04-04T07:53:57.346Z,4.45
2023-04-04T07:56:24.508Z,4.15
2023-04-04T07:58:51.658Z,3.85
2023-04-04T08:01:18.799Z,4.50
2023-04-04T08:03:46.338Z,3.65
2023-04-04T08:06:13.901Z,4.47
2023-04-04T08:08:41.411Z,3.90
2023-04-04T08:11:08.611Z,4.47
2023-04-04T08:13:35.658Z,4.32
2023-04-04T08:16:02.820Z,4.13
2023-04-04T08:18:29.877Z,4.60
2023-04-04T08:20:56.944Z,3.75
2023-04-04T08:23:24.078Z,3.90
2023-04-04T08:25:51.744Z,4.85
2023-04-04T08:28:18.848Z,3.70
2023-04-04T08:30:46.404Z,3.92
2023-04-04T08:33:13.473Z,3.78
2023-04-04T08:35:40.592Z,3.85
2023-04-04T08:38:08.607Z,3.47
2023-04-04T08:40:35.838Z,3.88
2023-04-04T08:43:05.735Z,3.72
2023-04-04T08:45:35.131Z,3.58
2023-04-04T08:48:05.217Z,3.63
2023-04-04T08:50:34.022Z,3.83
2023-04-04T08:53:04.817Z,3.75
2023-04-04T08:55:32.772Z,4.35
2023-04-04T08:57:59.888Z,4.15
2023-04-04T09:00:26.990Z,3.60
2023-04-04T09:03:18.676Z,4.40
2023-04-04T09:05:47.244Z,3.83
2023-04-04T09:08:15.155Z,3.95
2023-04-04T09:10:44.226Z,3.83
2023-04-04T09:13:16.004Z,3.90
2023-04-04T09:15:51.243Z,3.22
2023-04-04T09:18:19.257Z,3.50
2023-04-04T09:20:47.779Z,3.60
2023-04-04T09:23:17.405Z,3.88
2023-04-04T09:28:24.774Z,3.50
2023-04-04T09:30:52.744Z,3.47
2023-04-04T09:33:22.550Z,3.17
2023-04-04T09:35:58.782Z,3.58
2023-04-04T09:38:28.949Z,3.58
2023-04-04T09:40:57.116Z,3.50
2023-04-04T09:43:25.752Z,3.65
2023-04-04T09:45:55.045Z,3.50
2023-04-04T09:48:32.799Z,3.67
2023-04-04T09:51:00.838Z,3.15
2023-04-04T09:53:28.530Z,3.47
2023-04-04T09:55:57.665Z,3.38
2023-04-04T09:58:28.040Z,3.60
2023-04-04T10:00:57.578Z,3.65
2023-04-04T10:03:25.344Z,4.07
2023-04-04T10:05:58.141Z,3.47
2023-04-04T10:08:27.525Z,3.60
2023-04-04T10:13:36.998Z,2.92
2023-04-04T10:16:05.228Z,2.88
2023-04-04T10:18:37.750Z,4.10
2023-04-04T10:23:41.139Z,3.45
2023-04-04T10:26:08.820Z,3.92
2023-04-04T10:28:36.116Z,3.67
2023-04-04T10:31:25.589Z,3.97
2023-04-04T10:34:13.858Z,4.00
2023-04-04T10:36:46.593Z,3.47
2023-04-04T10:39:29.182Z,3.33
2023-04-04T10:41:57.589Z,3.80
2023-04-04T10:44:34.146Z,3.63
2023-04-04T10:47:26.658Z,4.22
2023-04-04T10:49:54.180Z,3.85
2023-04-04T10:52:25.011Z,4.45
2023-04-04T10:54:55.955Z,4.03
2023-04-04T10:57:23.935Z,3.28
2023-04-04T11:00:02.650Z,3.50
2023-04-04T11:02:53.280Z,3.75
2023-04-04T11:05:42.586Z,4.13
2023-04-04T11:08:14.095Z,3.90
2023-04-04T11:10:46.538Z,3.42
2023-04-04T11:13:23.914Z,3.90
2023-04-04T11:16:07.620Z,3.42
2023-04-04T11:18:41.735Z,3.40
2023-04-04T11:21:11.586Z,4.30
2023-04-04T11:23:48.235Z,4.00
2023-04-04T11:26:36.086Z,4.55
2023-04-04T11:29:14.430Z,3.90
2023-04-04T11:31:48.349Z,3.50
2023-04-04T11:34:29.645Z,3.50
2023-04-04T11:36:58.114Z,3.53
2023-04-04T11:39:30.871Z,2.85
2023-04-04T11:42:10.573Z,3.70
2023-04-04T11:44:43.240Z,3.80
2023-04-04T11:47:12.060Z,3.53
2023-04-04T11:49:43.229Z,4.43
2023-04-04T11:52:12.602Z,4.00
2023-04-04T11:54:41.088Z,4.00
2023-04-04T11:57:11.746Z,4.78
2023-04-04T11:59:45.667Z,4.93
2023-04-04T12:02:15.889Z,4.43
2023-04-04T12:04:46.119Z,4.13
2023-04-04T12:07:15.630Z,4.68
2023-04-04T12:09:42.852Z,4.00
2023-04-04T12:12:16.788Z,4.32
2023-04-04T12:14:45.170Z,4.40
2023-04-04T12:17:12.536Z,5.18
2023-04-04T12:19:41.465Z,5.10
2023-04-04T12:22:08.904Z,5.53
2023-04-04T12:24:39.250Z,5.00
2023-04-04T12:27:07.288Z,4.18
2023-04-04T12:29:37.788Z,3.40
2023-04-04T12:32:06.749Z,4.45
2023-04-04T12:34:36.490Z,4.32
2023-04-04T12:37:04.316Z,4.03
2023-04-04T12:39:32.178Z,3.88
2023-04-04T12:42:02.631Z,4.20
2023-04-04T12:44:35.082Z,3.47
2023-04-04T12:47:05.051Z,4.90
2023-04-04T12:49:40.043Z,3.65
2023-04-04T12:52:09.273Z,4.13
2023-04-04T12:54:40.272Z,3.45
2023-04-04T12:57:08.382Z,4.90
2023-04-04T12:59:36.959Z,4.03
2023-04-04T13:02:14.330Z,3.60
2023-04-04T13:04:45.117Z,3.88
2023-04-04T13:07:43.189Z,3.75
2023-04-04T13:10:14.839Z,4.22
2023-04-04T13:12:59.016Z,4.40
2023-04-04T13:15:51.894Z,5.20
2023-04-04T13:18:24.865Z,4.53
2023-04-04T13:20:53.803Z,5.68
2023-04-04T13:23:22.292Z,4.45
2023-04-04T13:25:49.673Z,4.15
2023-04-04T13:28:16.854Z,3.80
2023-04-04T13:30:49.033Z,3.83
2023-04-04T13:33:17.877Z,3.90
2023-04-04T13:35:46.650Z,4.18
2023-04-04T13:38:14.195Z,4.43
2023-04-04T13:40:41.349Z,4.78
2023-04-04T13:43:08.865Z,3.80
2023-04-04T13:45:36.251Z,4.00
2023-04-04T13:48:04.372Z,4.00
2023-04-04T13:50:33.086Z,3.92
2023-04-04T13:53:00.129Z,3.90
2023-04-04T13:55:28.045Z,4.35
2023-04-04T13:57:55.354Z,4.30
2023-04-04T14:00:23.071Z,4.07
2023-04-04T14:02:54.166Z,3.90
2023-04-04T14:05:22.865Z,4.80
2023-04-04T14:07:50.312Z,3.83
2023-04-04T14:10:17.709Z,4.05
2023-04-04T14:12:44.896Z,3.78
2023-04-04T14:15:12.494Z,3.78
2023-04-04T14:17:39.716Z,4.80
2023-04-04T14:20:08.088Z,3.95
2023-04-04T14:22:35.665Z,4.60
2023-04-04T14:25:03.016Z,4.57
2023-04-04T14:27:30.132Z,3.63
2023-04-04T14:29:57.305Z,3.88
2023-04-04T14:32:25.088Z,4.03
2023-04-04T14:34:52.259Z,4.40
2023-04-04T14:37:19.782Z,4.00
2023-04-04T14:39:46.898Z,3.80
2023-04-04T14:42:14.510Z,4.03
2023-04-04T14:44:42.451Z,4.43
2023-04-04T14:47:09.764Z,3.95
2023-04-04T14:49:36.861Z,3.88
2023-04-04T14:52:04.351Z,4.32
2023-04-04T14:54:31.619Z,4.15
2023-04-04T14:56:58.781Z,4.28
2023-04-04T14:59:26.020Z,4.47
2023-04-04T15:01:53.060Z,3.67
2023-04-04T15:04:20.258Z,3.85
2023-04-04T15:06:47.453Z,4.10
2023-04-04T15:09:16.476Z,4.28
2023-04-04T15:11:43.672Z,4.47
2023-04-04T15:14:10.901Z,4.60
2023-04-04T15:16:38.528Z,6.85
2023-04-04T15:19:05.796Z,4.53
2023-04-04T15:21:32.892Z,4.25
2023-04-04T15:24:00.144Z,4.80
2023-04-04T15:26:27.257Z,6.75
2023-04-04T15:28:54.338Z,4.45
2023-04-04T15:31:21.477Z,4.25
2023-04-04T15:33:48.837Z,4.38
2023-04-04T15:36:16.000Z,7.15
2023-04-04T15:38:43.174Z,5.70
2023-04-04T15:41:10.771Z,5.55
2023-04-04T15:43:38.211Z,5.72
2023-04-04T15:46:05.557Z,5.72
2023-04-04T15:48:34.575Z,5.03
2023-04-04T15:51:05.146Z,5.10
2023-04-04T15:53:32.600Z,5.15
2023-04-04T15:56:00.226Z,4.80
2023-04-04T15:58:27.258Z,5.30
2023-04-04T16:00:55.745Z,8.50
2023-04-04T16:03:24.776Z,5.00
2023-04-04T16:05:52.266Z,23.70
2023-04-04T16:08:19.418Z,15.82
2023-04-04T16:10:46.502Z,11.18
2023-04-04T16:13:14.087Z,14.05
2023-04-04T16:15:45.174Z,10.27
2023-04-04T16:18:12.392Z,9.55
2023-04-04T16:20:39.666Z,8.55
2023-04-04T16:23:06.950Z,7.28
2023-04-04T16:25:34.035Z,11.20
2023-04-04T16:28:01.362Z,6.82
2023-04-04T16:30:29.276Z,5.78
2023-04-04T16:32:56.645Z,7.32
2023-04-04T16:35:24.085Z,7.57
2023-04-04T16:37:51.462Z,7.63
2023-04-04T16:40:18.648Z,7.05
2023-04-04T16:42:46.225Z,6.15
2023-04-04T16:45:13.468Z,5.50
2023-04-04T16:47:40.711Z,6.57
2023-04-04T16:50:08.369Z,7.20
2023-04-04T16:52:35.425Z,6.78
2023-04-04T16:55:02.736Z,7.18
2023-04-04T16:57:29.884Z,6.57
2023-04-04T16:59:57.369Z,6.63
2023-04-04T17:02:24.368Z,6.13
2023-04-04T17:04:52.456Z,5.60
2023-04-04T17:07:22.695Z,7.15
2023-04-04T17:09:51.597Z,7.85
2023-04-04T17:12:20.320Z,5.38
2023-04-04T17:14:47.866Z,5.38
2023-04-04T17:17:15.847Z,6.38
2023-04-04T17:19:43.042Z,5.82
2023-04-04T17:22:10.336Z,5.57
2023-04-04T17:24:37.824Z,5.85
2023-04-04T17:27:04.831Z,5.65
2023-04-04T17:29:31.992Z,5.53
2023-04-04T17:31:59.990Z,5.95
2023-04-04T17:34:27.298Z,6.15
2023-04-04T17:36:54.545Z,6.28
2023-04-04T17:39:22.127Z,5.80
2023-04-04T17:41:49.675Z,5.75
2023-04-04T17:44:18.645Z,5.72
2023-04-04T17:46:46.419Z,6.45
2023-04-04T17:49:19.933Z,5.93
2023-04-04T17:51:49.265Z,6.80
2023-04-04T17:54:16.815Z,6.20
2023-04-04T17:56:46.297Z,6.45
2023-04-04T17:59:14.834Z,6.13
2023-04-04T18:01:42.355Z,6.65
2023-04-04T18:04:09.886Z,6.63
2023-04-04T18:06:40.134Z,6.63
2023-04-04T18:09:09.273Z,6.90
2023-04-04T18:11:37.114Z,7.15
2023-04-04T18:14:04.616Z,7.05
2023-04-04T18:16:39.064Z,6.47
2023-04-04T18:19:08.139Z,7.25
2023-04-04T18:21:35.298Z,7.53
2023-04-04T18:24:02.364Z,7.70
2023-04-04T18:26:29.605Z,7.90
2023-04-04T18:28:56.759Z,6.90
2023-04-04T18:31:23.946Z,7.40
2023-04-04T18:33:52.397Z,6.78
2023-04-04T18:36:19.443Z,8.02
2023-04-04T18:38:47.696Z,7.13
2023-04-04T18:41:17.551Z,7.47
2023-04-04T18:43:44.847Z,7.10
2023-04-04T18:46:12.381Z,7.70
2023-04-04T18:48:39.608Z,8.05
2023-04-04T18:51:08.025Z,8.07
2023-04-04T18:53:35.109Z,8.98
2023-04-04T18:56:02.151Z,8.40
2023-04-04T18:58:29.246Z,8.88
2023-04-04T19:00:58.613Z,9.85
2023-04-04T19:03:26.537Z,10.55
2023-04-04T19:05:55.801Z,8.55
2023-04-04T19:08:24.273Z,7.03
2023-04-04T19:10:51.559Z,6.90
2023-04-04T19:13:18.836Z,6.90
2023-04-04T19:15:47.108Z,9.93
2023-04-04T19:18:15.545Z,13.85
2023-04-04T19:20:43.754Z,13.45
2023-04-04T19:23:11.183Z,12.80
2023-04-04T19:25:38.821Z,11.30
2023-04-04T19:28:06.480Z,9.60
2023-04-04T19:30:39.560Z,9.05
2023-04-04T19:33:17.501Z,8.73
2023-04-04T19:35:48.722Z,7.95
2023-04-04T19:38:21.941Z,8.10
2023-04-04T19:43:21.688Z,13.80
2023-04-04T19:45:56.870Z,15.23
2023-04-04T19:48:45.124Z,14.70
2023-04-04T19:51:18.406Z,11.48
2023-04-04T19:56:15.007Z,12.75
2023-04-04T19:58:42.571Z,14.00
2023-04-04T20:01:11.392Z,15.48
2023-04-04T20:03:39.353Z,13.98
2023-04-04T20:06:22.629Z,14.77
2023-04-04T20:08:52.157Z,14.73
2023-04-04T20:11:30.316Z,15.27
2023-04-04T20:13:58.447Z,13.63
2023-04-04T20:16:26.616Z,13.27
2023-04-04T20:18:54.324Z,12.77
2023-04-04T20:21:23.356Z,11.40
2023-04-04T20:24:03.799Z,11.95
2023-04-04T20:26:55.083Z,11.05
2023-04-04T20:29:28.436Z,11.38
2023-04-04T20:32:04.113Z,10.82
2023-04-04T20:34:46.938Z,10.15
2023-04-04T20:37:19.926Z,9.90
2023-04-04T20:39:47.036Z,10.55
2023-04-04T20:42:26.269Z,9.73
2023-04-04T20:44:54.771Z,11.13
2023-04-04T20:47:40.983Z,11.60
2023-04-04T20:50:17.114Z,11.10
2023-04-04T20:52:56.272Z,10.48
2023-04-04T20:55:25.698Z,9.38
2023-04-04T20:57:54.488Z,9.48
2023-04-04T21:00:36.515Z,10.02
2023-04-04T21:03:09.159Z,17.75
2023-04-04T21:05:38.937Z,19.42
2023-04-04T21:08:37.829Z,18.77
2023-04-04T21:11:07.025Z,17.52
2023-04-04T21:13:36.881Z,20.08
2023-04-04T21:16:14.146Z,19.20
2023-04-04T21:18:44.175Z,18.70
2023-04-04T21:21:11.285Z,19.33
2023-04-04T21:23:52.801Z,21.38
2023-04-04T21:26:33.006Z,21.30
2023-04-04T21:29:05.437Z,20.45
2023-04-04T21:31:38.017Z,16.23
2023-04-04T21:34:11.219Z,20.60
2023-04-04T21:36:38.819Z,21.15
2023-04-04T21:39:15.026Z,19.08
2023-04-04T21:41:45.184Z,19.67
2023-04-04T21:44:12.637Z,18.77
2023-04-04T21:46:41.632Z,20.40
2023-04-04T21:49:10.935Z,19.85
2023-04-04T21:51:39.043Z,23.45
2023-04-04T21:54:06.790Z,19.48
2023-04-04T21:56:34.087Z,16.70
2023-04-04T21:59:04.737Z,15.35
2023-04-04T22:01:32.328Z,16.30
2023-04-04T22:04:00.707Z,17.23
2023-04-04T22:06:31.696Z,18.05
2023-04-04T22:09:02.614Z,16.67
2023-04-04T22:11:30.683Z,17.67
2023-04-04T22:14:05.036Z,16.15
2023-04-04T22:16:40.557Z,17.83
2023-04-04T22:19:12.343Z,15.13
2023-04-04T22:21:48.631Z,17.23
2023-04-04T22:24:20.052Z,16.67
2023-04-04T22:26:52.445Z,14.90
2023-04-04T22:29:23.493Z,12.15
2023-04-04T22:31:54.528Z,15.63
2023-04-04T22:34:25.507Z,16.80
2023-04-04T22:36:56.424Z,15.15
2023-04-04T22:39:27.100Z,16.40
2023-04-04T22:41:57.839Z,18.52
2023-04-04T22:44:29.507Z,16.52
2023-04-04T22:47:00.233Z,17.77
2023-04-04T22:49:31.161Z,18.10
2023-04-04T22:52:02.065Z,15.18
2023-04-04T22:54:33.122Z,15.60
2023-04-04T22:57:03.783Z,15.90
2023-04-04T22:59:34.906Z,15.85
2023-04-04T23:02:05.152Z,16.23
2023-04-04T23:04:37.016Z,16.05
2023-04-04T23:07:08.203Z,14.15
2023-04-04T23:09:38.660Z,16.15
2023-04-04T23:12:09.802Z,14.45
2023-04-04T23:14:40.693Z,13.07
2023-04-04T23:17:11.274Z,11.98
2023-04-04T23:19:42.527Z,11.77
2023-04-04T23:22:13.181Z,12.13
2023-04-04T23:24:43.696Z,11.90
2023-04-04T23:27:14.701Z,11.90
2023-04-04T23:29:49.347Z,11.10
2023-04-04T23:32:20.384Z,11.45
2023-04-04T23:34:51.897Z,10.90
2023-04-04T23:37:24.078Z,11.10
2023-04-04T23:39:51.609Z,11.40
2023-04-04T23:42:20.261Z,10.20
2023-04-04T23:44:47.415Z,10.85
2023-04-04T23:47:14.769Z,9.93
2023-04-04T23:49:41.834Z,10.75
2023-04-04T23:52:09.055Z,10.43
2023-04-04T23:54:36.154Z,10.35
2023-04-04T23:57:03.300Z,9.82
2023-04-04T23:59:30.378Z,10.52
